Time;durP1;ratioP1;P1;durP2;ratioP2;P2;SDS_P1;SDS_P2;PMS_P1;PMS_P2;Temp;Humidity;BMP_temperature;BMP_pressure;BME280_temperature;BME280_humidity;BME280_pressure;Samples;Min_cycle;Max_cycle;Signal;HPM_P1;HPM_P2
2022/11/01 00:00:13;;;;;;;25.30;12.05;;;;;;;7.67;100.00;101363.69;4881488;28;20055;-61
2022/11/01 00:02:53;;;;;;;29.20;11.85;;;;;;;7.67;100.00;101348.97;4829705;28;20044;-63
2022/11/01 00:05:41;;;;;;;26.17;11.18;;;;;;;7.70;100.00;101349.00;4867396;28;20053;-62
2022/11/01 00:08:20;;;;;;;33.08;12.90;;;;;;;7.75;100.00;101352.53;4884615;28;20056;-61
2022/11/01 00:11:10;;;;;;;31.42;12.45;;;;;;;7.83;100.00;101359.56;4904133;28;20043;-62
2022/11/01 00:14:06;;;;;;;28.00;12.43;;;;;;;7.77;100.00;101335.22;4895978;28;20043;-60
2022/11/01 00:16:59;;;;;;;30.88;12.55;;;;;;;7.87;100.00;101345.75;4871662;28;20057;-61
2022/11/01 00:19:39;;;;;;;27.08;12.38;;;;;;;7.92;100.00;101338.84;4854729;28;20062;-61
2022/11/01 00:22:59;;;;;;;27.55;12.50;;;;;;;8.01;100.00;101333.72;4829810;28;20076;-62
2022/11/01 00:25:45;;;;;;;31.13;13.15;;;;;;;8.07;100.00;101328.63;4876932;28;20072;-61
2022/11/01 00:28:42;;;;;;;28.13;12.77;;;;;;;8.21;100.00;101310.53;4887265;28;20084;-61
2022/11/01 00:31:20;;;;;;;28.88;12.20;;;;;;;8.29;99.97;101323.66;4888776;28;20046;-60
2022/11/01 00:34:16;;;;;;;28.88;13.52;;;;;;;8.29;99.44;101318.44;4852789;28;20037;-60
2022/11/01 00:36:57;;;;;;;23.38;11.93;;;;;;;8.33;99.32;101328.00;4872377;28;20048;-61
2022/11/01 00:39:39;;;;;;;22.65;11.15;;;;;;;8.27;99.08;101330.56;4909758;28;20056;-61
2022/11/01 00:45:22;;;;;;;25.15;10.95;;;;;;;8.15;99.01;101311.34;4820955;28;20184;-61
2022/11/01 00:48:05;;;;;;;22.55;11.63;;;;;;;8.13;99.08;101307.84;4815484;28;20043;-60
2022/11/01 00:50:49;;;;;;;26.90;12.23;;;;;;;8.13;99.25;101323.47;4827479;28;20042;-60
2022/11/01 00:53:36;;;;;;;43.28;14.43;;;;;;;8.17;99.30;101309.63;4846699;28;20046;-61
2022/11/01 00:56:25;;;;;;;29.75;12.63;;;;;;;8.20;99.32;101301.84;4834969;28;20059;-61
2022/11/01 00:59:07;;;;;;;33.80;13.13;;;;;;;8.18;99.56;101280.13;4795657;28;20102;-61
2022/11/01 01:02:04;;;;;;;31.48;14.43;;;;;;;8.32;99.66;101298.50;4870577;28;20046;-61
2022/11/01 01:05:09;;;;;;;30.88;13.45;;;;;;;8.26;99.47;101297.56;4786269;28;20046;-60
2022/11/01 01:10:52;;;;;;;31.88;13.43;;;;;;;8.15;100.00;101274.88;4833834;28;20466;-60
2022/11/01 01:13:43;;;;;;;32.17;13.95;;;;;;;8.20;100.00;101283.63;4854509;28;20034;-60
2022/11/01 01:16:25;;;;;;;27.10;13.65;;;;;;;8.20;100.00;101268.00;4858804;28;20050;-59
2022/11/01 01:19:08;;;;;;;33.60;13.35;;;;;;;7.88;100.00;101213.03;4863786;28;20106;-60
2022/11/01 01:22:00;;;;;;;27.40;12.55;;;;;;;8.12;100.00;101258.38;4863354;28;20057;-60
2022/11/01 01:24:44;;;;;;;28.05;13.20;;;;;;;8.12;100.00;101254.03;4885890;28;20046;-60
2022/11/01 01:27:24;;;;;;;31.75;13.02;;;;;;;8.13;100.00;101258.38;4872692;28;20054;-60
2022/11/01 01:30:05;;;;;;;24.00;13.45;;;;;;;8.13;100.00;101250.56;4917246;28;20053;-59
2022/11/01 01:32:51;;;;;;;27.15;13.93;;;;;;;7.91;100.00;101202.66;4862865;28;20183;-60
2022/11/01 01:35:37;;;;;;;25.60;13.73;;;;;;;8.19;100.00;101227.22;4866094;28;20050;-60
2022/11/01 01:44:48;;;;;;;29.83;15.38;;;;;;;8.24;100.00;101215.94;4886369;28;20322;-61
2022/11/01 01:47:40;;;;;;;31.25;15.45;;;;;;;8.04;100.00;101188.03;4899295;28;20185;-60
2022/11/01 01:50:23;;;;;;;34.35;14.85;;;;;;;8.23;100.00;101214.22;4851183;28;20541;-60
2022/11/01 01:53:06;;;;;;;32.03;14.18;;;;;;;8.19;100.00;101209.00;4897194;28;20057;-60
2022/11/01 01:55:59;;;;;;;34.75;14.27;;;;;;;8.24;100.00;101200.31;4860276;28;20329;-61
2022/11/01 01:58:47;;;;;;;33.55;15.93;;;;;;;8.27;100.00;101187.34;4886543;28;20037;-61
2022/11/01 02:01:30;;;;;;;30.75;15.75;;;;;;;8.36;100.00;101184.78;4867563;28;20060;-61
2022/11/01 02:04:19;;;;;;;27.90;14.23;;;;;;;8.42;100.00;101164.06;4873104;28;20054;-61
2022/11/01 02:06:52;;;;;;;33.28;13.30;;;;;;;8.65;100.00;101172.00;4905177;28;20040;-62
2022/11/01 02:09:38;;;;;;;29.50;14.00;;;;;;;8.76;100.00;101178.19;4876169;28;20050;-60
2022/11/01 02:12:28;;;;;;;29.70;13.05;;;;;;;8.85;100.00;101177.34;4870600;28;20049;-61
2022/11/01 02:15:17;;;;;;;29.55;13.38;;;;;;;8.89;100.00;101175.63;4899852;28;20045;-61
2022/11/01 02:18:22;;;;;;;29.83;13.20;;;;;;;8.75;100.00;101146.88;4897324;28;20442;-60
2022/11/01 02:21:48;;;;;;;27.83;11.40;;;;;;;8.77;100.00;101150.38;4866262;28;20107;-62
2022/11/01 02:25:17;;;;;;;26.02;10.48;;;;;;;8.95;100.00;101147.84;4837167;28;20073;-64
2022/11/01 02:28:35;;;;;;;33.83;10.80;;;;;;;9.12;100.00;101136.63;4891648;28;20045;-62
2022/11/01 02:31:39;;;;;;;21.00;10.70;;;;;;;9.26;100.00;101129.69;4862377;28;20054;-61
2022/11/01 02:34:52;;;;;;;27.70;11.38;;;;;;;9.55;100.00;101121.09;4866483;28;20053;-62
2022/11/01 02:37:45;;;;;;;27.35;10.65;;;;;;;9.75;99.72;101119.34;4816382;28;20057;-64
2022/11/01 02:40:53;;;;;;;24.55;11.10;;;;;;;9.85;98.38;101115.88;4847213;28;20046;-62
2022/11/01 02:43:45;;;;;;;21.80;10.90;;;;;;;9.80;97.25;101107.19;4874177;28;20231;-63
2022/11/01 02:50:06;;;;;;;26.85;10.77;;;;;;;9.90;97.07;101098.47;4866612;28;20242;-63
2022/11/01 02:52:59;;;;;;;29.80;10.10;;;;;;;9.98;96.81;101079.34;4855702;28;20072;-62
2022/11/01 02:55:40;;;;;;;25.58;9.82;;;;;;;10.05;96.64;101081.06;4879067;28;20112;-63
2022/11/01 02:58:32;;;;;;;26.38;9.48;;;;;;;10.02;95.98;101070.63;4878869;28;20166;-63
2022/11/01 03:01:19;;;;;;;21.00;9.63;;;;;;;9.32;95.47;100957.59;4816502;28;20108;-63
2022/11/01 03:04:06;;;;;;;24.55;10.23;;;;;;;9.96;95.35;101075.84;4875979;28;20051;-62
2022/11/01 03:06:59;;;;;;;21.73;10.32;;;;;;;9.97;95.86;101067.16;4900369;28;20044;-63
2022/11/01 03:09:47;;;;;;;18.15;8.27;;;;;;;10.00;95.38;101061.94;4896271;28;20051;-61
2022/11/01 03:12:41;;;;;;;17.63;8.52;;;;;;;10.11;95.35;101065.41;4876439;28;20095;-61
2022/11/01 03:15:28;;;;;;;19.05;8.13;;;;;;;10.23;94.92;101065.34;4883056;28;20068;-61
2022/11/01 03:18:23;;;;;;;16.55;7.63;;;;;;;10.34;94.53;101062.78;4858663;28;20045;-62
2022/11/01 03:21:27;;;;;;;16.52;6.68;;;;;;;10.46;93.35;101061.84;4875968;28;20051;-62
2022/11/01 03:30:26;;;;;;;14.68;6.38;;;;;;;11.12;90.49;101038.88;4879982;28;20058;-61
2022/11/01 03:33:13;;;;;;;14.10;6.28;;;;;;;11.21;89.47;101033.59;4883979;28;20124;-61
2022/11/01 03:36:05;;;;;;;10.07;5.57;;;;;;;11.19;88.80;101026.66;4830467;28;20087;-62
2022/11/01 03:38:53;;;;;;;14.05;6.40;;;;;;;11.23;89.00;101037.09;4868000;28;20055;-61
2022/11/01 03:41:34;;;;;;;19.73;7.57;;;;;;;11.23;88.58;101031.84;4882780;28;20073;-61
2022/11/01 03:44:15;;;;;;;15.40;7.93;;;;;;;11.03;88.71;100994.47;4839759;28;20045;-61
2022/11/01 03:47:23;;;;;;;15.50;7.30;;;;;;;11.18;87.99;101027.50;4877055;28;20056;-62
2022/11/01 03:50:24;;;;;;;14.40;6.75;;;;;;;11.01;88.18;101027.63;4847228;28;20057;-60
2022/11/01 03:53:19;;;;;;;15.63;6.68;;;;;;;10.95;89.16;101020.69;4865441;28;20052;-60
2022/11/01 03:55:57;;;;;;;10.02;5.90;;;;;;;10.80;88.82;101005.94;4890591;28;20079;-61
2022/11/01 03:58:48;;;;;;;14.63;5.75;;;;;;;10.75;88.83;101015.56;4896779;28;20073;-61
2022/11/01 04:01:39;;;;;;;12.95;5.53;;;;;;;10.67;89.04;101014.72;4872821;28;20063;-61
2022/11/01 04:04:24;;;;;;;9.50;4.95;;;;;;;10.55;89.39;101004.34;4864703;28;20056;-61
2022/11/01 04:06:57;;;;;;;14.15;6.38;;;;;;;10.58;89.93;101015.66;4872644;28;20046;-61
2022/11/01 04:09:37;;;;;;;18.17;6.68;;;;;;;10.56;90.13;101021.78;4889816;28;21594;-61
2022/11/01 04:13:00;;;;;;;12.77;5.60;;;;;;;10.61;90.36;101013.88;4899772;28;20518;-61
2022/11/01 04:24:45;;;;;;;15.18;6.40;;;;;;;10.88;90.24;101012.88;4822796;28;20057;-61
2022/11/01 04:27:30;;;;;;;14.98;5.40;;;;;;;10.92;89.46;100988.47;4854878;28;20056;-61
2022/11/01 04:30:18;;;;;;;23.70;8.38;;;;;;;10.94;89.43;100986.72;4820202;28;20399;-62
2022/11/01 04:33:06;;;;;;;13.50;5.32;;;;;;;10.97;89.15;100990.16;4828091;28;20050;-62
2022/11/01 04:35:48;;;;;;;10.63;4.13;;;;;;;10.99;88.13;100984.94;4833428;28;20070;-62
2022/11/01 04:38:27;;;;;;;11.27;4.28;;;;;;;10.93;87.85;100984.97;4852378;28;20048;-61
2022/11/01 04:41:26;;;;;;;11.02;4.15;;;;;;;10.84;87.50;100975.44;4784951;28;20443;-63
2022/11/01 04:47:00;;;;;;;13.52;4.43;;;;;;;10.85;88.37;100977.16;4825339;28;20064;-62
2022/11/01 04:49:57;;;;;;;10.60;4.07;;;;;;;10.97;88.33;100971.00;4830260;28;20055;-63
2022/11/01 04:53:04;;;;;;;10.30;4.00;;;;;;;11.09;87.76;100960.44;4813143;28;20034;-62
2022/11/01 04:55:43;;;;;;;11.55;4.70;;;;;;;11.16;87.51;100956.91;4856673;28;20049;-62
2022/11/01 04:58:20;;;;;;;17.30;4.82;;;;;;;11.04;87.08;100936.09;4845713;28;20431;-62
2022/11/01 05:00:55;;;;;;;10.40;4.22;;;;;;;11.21;86.58;100962.97;4850065;28;20042;-63
2022/11/01 05:03:36;;;;;;;12.32;4.63;;;;;;;11.11;86.39;100950.00;4827779;28;20042;-62
2022/11/01 05:06:17;;;;;;;17.42;4.78;;;;;;;11.04;86.60;100946.53;4852611;28;20050;-62
2022/11/01 05:09:06;;;;;;;8.25;3.88;;;;;;;10.98;86.44;100951.81;4854421;28;20764;-62
2022/11/01 05:14:31;;;;;;;8.50;4.57;;;;;;;10.90;86.84;100948.38;4859999;28;20220;-62
2022/11/01 05:17:09;;;;;;;12.55;4.03;;;;;;;10.77;87.05;100932.78;4847452;28;20106;-62
2022/11/01 05:19:49;;;;;;;8.63;3.88;;;;;;;10.84;87.23;100933.59;4843521;28;20054;-62
2022/11/01 05:22:30;;;;;;;11.43;4.22;;;;;;;10.83;87.05;100933.59;4767254;28;20043;-62
2022/11/01 05:28:13;;;;;;;10.80;4.20;;;;;;;10.83;87.13;100925.75;4891436;28;20042;-63
2022/11/01 05:30:52;;;;;;;10.93;4.82;;;;;;;10.93;87.09;100919.59;4854755;28;20613;-64
2022/11/01 05:33:55;;;;;;;10.70;4.43;;;;;;;10.91;86.94;100909.16;4855367;28;20050;-63
2022/11/01 05:36:37;;;;;;;12.30;4.82;;;;;;;10.89;86.69;100915.28;4904709;28;20032;-62
2022/11/01 05:39:40;;;;;;;13.73;4.95;;;;;;;10.77;87.00;100911.00;4915619;28;20536;-63
2022/11/01 05:42:27;;;;;;;15.10;4.85;;;;;;;10.64;87.37;100907.59;4872597;28;20077;-63
2022/11/01 05:45:05;;;;;;;16.33;5.10;;;;;;;10.55;87.79;100913.72;4888817;28;20075;-63
2022/11/01 05:47:45;;;;;;;14.35;4.82;;;;;;;10.31;88.25;100885.16;4904362;28;20057;-65
2022/11/01 05:50:34;;;;;;;11.18;4.93;;;;;;;10.41;88.68;100901.63;4878871;28;20112;-62
2022/11/01 05:56:20;;;;;;;10.27;4.68;;;;;;;10.40;89.25;100897.28;4881803;28;20045;-62
2022/11/01 05:58:59;;;;;;;14.18;4.43;;;;;;;10.38;88.92;100901.66;4886359;28;20253;-61
2022/11/01 06:01:39;;;;;;;9.65;4.35;;;;;;;10.34;89.02;100899.06;4906584;28;20118;-64
2022/11/01 06:07:06;;;;;;;9.27;4.68;;;;;;;10.28;88.60;100896.50;4846820;28;20155;-62
2022/11/01 06:09:51;;;;;;;11.55;4.88;;;;;;;10.21;88.17;100889.53;4890220;28;20036;-63
2022/11/01 06:12:46;;;;;;;11.60;4.90;;;;;;;10.12;88.03;100895.66;4845380;28;22552;-63
2022/11/01 06:15:36;;;;;;;13.00;5.30;;;;;;;10.08;88.39;100906.09;4881816;28;20051;-61
2022/11/01 06:18:16;;;;;;;15.88;5.57;;;;;;;10.01;88.53;100893.94;4861668;28;20065;-62
2022/11/01 06:21:02;;;;;;;13.85;5.30;;;;;;;9.97;88.63;100894.84;4866437;28;20052;-64
2022/11/01 06:23:53;;;;;;;11.80;6.00;;;;;;;9.82;88.85;100891.41;4860152;28;20534;-63
2022/11/01 06:29:36;;;;;;;;;;;;;;;9.80;89.63;100877.50;4858152;28;20055;-61
2022/11/01 06:32:23;;;;;;;15.80;6.03;;;;;;;9.77;89.94;100877.50;4898194;28;19935;-62
2022/11/01 06:35:04;;;;;;;;;;;;;;;9.74;90.27;100880.13;4856098;28;20053;-62
2022/11/01 06:37:47;;;;;;;19.50;6.57;;;;;;;9.69;90.72;100868.84;4899409;28;19961;-62
2022/11/01 06:40:34;;;;;;;16.48;7.30;;;;;;;9.63;91.19;100866.25;4884124;28;20057;-63
2022/11/01 06:43:12;;;;;;;17.80;7.90;;;;;;;9.56;91.56;100867.13;4856157;28;20069;-61
2022/11/01 06:49:05;;;;;;;20.90;10.07;;;;;;;9.46;92.09;100861.94;4843140;28;20065;-61
2022/11/01 06:51:55;;;;;;;32.17;12.93;;;;;;;9.41;92.15;100862.81;4874821;28;20105;-60
2022/11/01 06:54:45;;;;;;;31.42;15.48;;;;;;;9.34;92.08;100855.91;4884181;28;20045;-61
2022/11/01 06:57:32;;;;;;;29.38;14.57;;;;;;;9.31;92.40;100872.41;4884511;28;20356;-61
2022/11/01 07:03:18;;;;;;;43.90;19.00;;;;;;;9.19;92.65;100856.78;4860294;28;20165;-61
2022/11/01 07:06:46;;;;;;;38.08;15.68;;;;;;;9.20;92.89;100854.16;4900988;28;20045;-61
2022/11/01 07:09:40;;;;;;;32.10;13.15;;;;;;;9.18;93.28;100855.03;4879688;28;20041;-62
2022/11/01 07:12:44;;;;;;;32.65;13.65;;;;;;;9.15;93.43;100855.03;4872924;28;20049;-62
2022/11/01 07:15:29;;;;;;;28.45;11.27;;;;;;;9.14;93.77;100842.88;4844435;28;20053;-61
2022/11/01 07:18:47;;;;;;;27.15;10.77;;;;;;;9.12;93.92;100839.41;4847169;28;20042;-61
2022/11/01 07:27:25;;;;;;;24.92;12.25;;;;;;;9.03;93.91;100843.72;4856727;28;20045;-62
2022/11/01 07:41:26;;;;;;;21.23;10.20;;;;;;;8.90;94.35;100823.78;4643114;29;20970;-61
2022/11/01 07:44:12;;;;;;;25.17;10.60;;;;;;;8.82;94.53;100820.31;4646900;29;20358;-62
2022/11/01 07:47:01;;;;;;;23.80;9.73;;;;;;;8.77;94.53;100822.06;4673446;29;20043;-62
2022/11/01 07:49:46;;;;;;;22.77;10.00;;;;;;;8.72;94.52;100821.19;4600729;30;20089;-62
2022/11/01 07:52:45;;;;;;;23.27;10.88;;;;;;;8.64;94.68;100810.75;4628013;29;20047;-61
2022/11/01 07:55:26;;;;;;;25.98;10.20;;;;;;;8.57;94.80;100804.66;4644052;29;20324;-62
2022/11/01 07:58:26;;;;;;;27.35;11.75;;;;;;;8.49;94.88;100803.81;4629113;29;20071;-62
2022/11/01 08:04:09;;;;;;;30.40;12.25;;;;;;;8.33;95.47;100799.41;4644320;30;20093;-62
2022/11/01 08:06:55;;;;;;;27.08;13.38;;;;;;;8.28;96.02;100790.72;4663612;29;20089;-62
2022/11/01 08:09:28;;;;;;;34.35;13.88;;;;;;;8.25;96.28;100790.72;4650924;29;20309;-62
2022/11/01 08:12:08;;;;;;;37.08;15.80;;;;;;;8.21;96.57;100790.72;4699507;29;20083;-61
2022/11/01 08:15:07;;;;;;;33.85;14.70;;;;;;;8.26;97.15;100792.44;4739050;29;20061;-62
2022/11/01 08:17:45;;;;;;;41.75;15.32;;;;;;;8.23;96.96;100782.03;4808973;28;20053;-62
2022/11/01 08:20:23;;;;;;;30.88;14.35;;;;;;;8.18;97.34;100775.06;4834127;28;20054;-62
2022/11/01 08:23:20;;;;;;;32.10;13.73;;;;;;;8.22;97.37;100781.16;4808840;28;20063;-61
2022/11/01 08:26:03;;;;;;;28.52;13.95;;;;;;;8.21;97.77;100775.09;4775877;28;20074;-61
2022/11/01 08:28:43;;;;;;;27.80;13.65;;;;;;;8.23;97.86;100782.91;4827242;28;20082;-61
2022/11/01 08:31:31;;;;;;;28.67;13.02;;;;;;;8.19;97.95;100761.22;4794395;28;20057;-61
2022/11/01 08:34:15;;;;;;;36.78;14.23;;;;;;;8.24;97.84;100757.72;4825155;28;20059;-61
2022/11/01 08:36:54;;;;;;;28.33;14.43;;;;;;;8.20;98.11;100757.72;4811408;28;20049;-62
2022/11/01 08:39:51;;;;;;;28.88;15.02;;;;;;;8.21;97.91;100759.47;4813734;28;20047;-62
2022/11/01 08:42:34;;;;;;;33.42;14.38;;;;;;;8.21;98.46;100759.47;4826829;28;20058;-62
2022/11/01 08:45:22;;;;;;;26.60;12.88;;;;;;;8.27;98.28;100757.75;4824780;28;20040;-62
2022/11/01 08:48:06;;;;;;;28.13;12.88;;;;;;;8.27;98.26;100757.75;4819633;28;20119;-61
2022/11/01 08:50:55;;;;;;;27.73;13.25;;;;;;;8.25;98.01;100754.28;4789416;28;20067;-62
2022/11/01 08:53:30;;;;;;;21.90;12.38;;;;;;;8.20;97.95;100741.25;4822322;28;20055;-61
2022/11/01 08:56:07;;;;;;;29.30;12.55;;;;;;;8.19;98.20;100735.19;4751120;28;20512;-61
2022/11/01 09:01:52;;;;;;;25.83;12.35;;;;;;;8.27;97.71;100752.53;4824154;28;20050;-61
2022/11/01 09:04:37;;;;;;;24.33;11.23;;;;;;;8.25;97.71;100743.84;4826816;28;20055;-62
2022/11/01 09:07:23;;;;;;;26.23;10.82;;;;;;;8.27;97.84;100752.53;4815919;28;20048;-61
2022/11/01 09:10:01;;;;;;;25.17;11.32;;;;;;;8.23;97.58;100741.25;4822618;28;20067;-61
2022/11/01 09:12:38;;;;;;;22.92;12.27;;;;;;;8.23;97.51;100740.38;4824923;28;20070;-62
2022/11/01 09:18:27;;;;;;;;;;;;;;;8.16;97.52;100740.38;4843710;28;20046;-62
2022/11/01 09:21:30;;;;;;;31.55;13.55;;;;;;;8.17;97.56;100741.25;4866128;28;19962;-61
2022/11/01 09:24:27;;;;;;;35.08;13.75;;;;;;;8.18;97.85;100728.22;4858862;28;20057;-60
2022/11/01 09:27:19;;;;;;;30.08;14.20;;;;;;;8.19;97.71;100729.97;4839898;28;20063;-61
2022/11/01 09:30:04;;;;;;;28.10;13.23;;;;;;;8.17;97.77;100725.63;4833442;28;20069;-62
2022/11/01 09:32:51;;;;;;;27.90;13.48;;;;;;;8.19;97.81;100724.75;4855992;28;20490;-63
2022/11/01 09:35:37;;;;;;;33.08;14.82;;;;;;;8.19;98.04;100719.56;4845330;28;20091;-62
2022/11/01 09:38:55;;;;;;;35.05;16.20;;;;;;;8.14;97.61;100716.09;4842729;28;20066;-61
2022/11/01 09:41:55;;;;;;;37.00;15.35;;;;;;;8.05;97.69;100705.66;4786155;28;20106;-63
2022/11/01 09:44:51;;;;;;;28.60;13.95;;;;;;;8.08;97.77;100705.66;4856403;28;20061;-62
2022/11/01 09:47:44;;;;;;;32.00;13.75;;;;;;;7.95;97.61;100698.72;4814522;28;20111;-61
2022/11/01 09:50:24;;;;;;;;;;;;;;;7.98;97.98;100698.69;4864378;28;20052;-62
2022/11/01 09:53:26;;;;;;;28.25;13.85;;;;;;;7.88;98.00;100681.34;4837855;28;19940;-61
2022/11/01 09:56:29;;;;;;;23.42;12.02;;;;;;;7.96;98.09;100685.72;4831917;28;20081;-62
2022/11/01 09:59:32;;;;;;;37.83;15.90;;;;;;;7.97;98.40;100691.78;4822408;28;21002;-62
2022/11/01 10:02:42;;;;;;;33.42;14.18;;;;;;;7.95;98.04;100690.91;4813497;28;20152;-62
2022/11/01 10:09:22;;;;;;;24.05;11.68;;;;;;;7.89;97.97;100672.69;4847008;28;20053;-66
2022/11/01 10:30:37;;;;;;;24.25;10.65;;;;;;;8.03;97.57;100665.75;4670514;29;20774;-61
2022/11/01 10:36:43;;;;;;;23.33;10.63;;;;;;;7.79;98.22;100632.78;4655961;29;20122;-61
2022/11/01 10:39:44;;;;;;;22.25;9.98;;;;;;;7.93;98.89;100653.59;4659856;29;20044;-61
2022/11/01 10:42:35;;;;;;;33.72;12.25;;;;;;;7.33;98.99;100558.16;4659720;29;20052;-61
2022/11/01 10:45:27;;;;;;;31.00;11.32;;;;;;;7.96;99.49;100658.78;4646180;29;20077;-61
2022/11/01 10:48:08;;;;;;;22.83;10.30;;;;;;;7.89;99.72;100646.69;4674483;29;20062;-61
2022/11/01 10:50:57;;;;;;;22.10;10.50;;;;;;;7.86;100.00;100637.13;4659508;29;20051;-62
2022/11/01 10:54:03;;;;;;;25.27;10.85;;;;;;;7.80;100.00;100615.44;4701598;29;20116;-61
2022/11/01 10:56:48;;;;;;;17.90;9.93;;;;;;;7.88;100.00;100627.56;4701105;29;20069;-61
2022/11/01 10:59:42;;;;;;;23.17;9.93;;;;;;;7.87;100.00;100619.78;4711483;29;20082;-61
2022/11/01 11:02:28;;;;;;;21.58;8.80;;;;;;;7.81;100.00;100606.75;4795377;29;20065;-61
2022/11/01 11:05:04;;;;;;;23.15;10.05;;;;;;;7.86;100.00;100599.81;4790137;29;20056;-61
2022/11/01 11:07:48;;;;;;;22.35;9.68;;;;;;;7.83;100.00;100599.81;4780410;28;20130;-61
2022/11/01 11:10:29;;;;;;;25.80;10.45;;;;;;;7.82;100.00;100593.75;4831425;28;20038;-61
2022/11/01 11:17:58;;;;;;;17.08;9.23;;;;;;;7.83;100.00;100573.81;4797965;29;20056;-61
2022/11/01 11:27:34;;;;;;;;;;;;;;;7.95;100.00;100542.59;4753722;29;20301;-61
2022/11/01 11:30:31;;;;;;;23.73;8.18;;;;;;;7.95;100.00;100542.59;4723195;29;20254;-60
2022/11/01 11:33:44;;;;;;;21.10;9.68;;;;;;;7.97;100.00;100530.44;4706355;29;20091;-60
2022/11/01 11:40:35;;;;;;;18.30;8.88;;;;;;;8.04;100.00;100526.97;4754967;29;20064;-60
2022/11/01 11:43:39;;;;;;;24.23;9.95;;;;;;;7.93;100.00;100493.13;4672578;29;20055;-60
2022/11/01 11:53:44;;;;;;;17.58;9.00;;;;;;;7.93;100.00;100492.28;4702234;29;20042;-60
2022/11/01 12:14:46;;;;;;;25.77;9.90;;;;;;;7.86;100.00;100477.53;4695222;29;20088;-61
2022/11/01 12:17:55;;;;;;;22.08;8.85;;;;;;;7.62;100.00;100432.50;4698554;29;20453;-61
2022/11/01 12:21:37;;;;;;;23.75;10.18;;;;;;;7.76;100.00;100448.97;4738504;29;20081;-61
2022/11/01 12:31:50;;;;;;;24.55;10.27;;;;;;;7.76;100.00;100430.75;4734204;29;20057;-60
2022/11/01 12:45:31;;;;;;;28.08;12.82;;;;;;;7.81;100.00;100409.03;4944131;27;20119;-60
2022/11/01 12:49:00;;;;;;;;;;;;;;;;;;;;;
2022/11/01 12:52:19;;;;;;;26.90;12.02;;;;;;;7.87;100.00;100409.03;4940131;28;20184;-60
2022/11/01 12:55:19;;;;;;;33.53;12.95;;;;;;;7.86;100.00;100407.28;4908162;28;20240;-60
2022/11/01 12:58:09;;;;;;;26.88;12.93;;;;;;;7.78;100.00;100400.38;4939730;28;20340;-59
2022/11/01 13:04:25;;;;;;;20.27;10.38;;;;;;;7.74;100.00;100398.69;4886218;28;20098;-61
2022/11/01 13:07:27;;;;;;;29.33;11.27;;;;;;;7.77;100.00;100384.78;4942424;28;20422;-62
2022/11/01 13:13:57;;;;;;;22.70;10.80;;;;;;;7.42;100.00;100327.69;4921479;28;20053;-59
2022/11/01 13:16:47;;;;;;;28.52;11.43;;;;;;;7.63;100.00;100366.59;4936169;28;20059;-61
2022/11/01 13:19:41;;;;;;;23.65;10.88;;;;;;;7.69;100.00;100366.63;4959829;28;20103;-61
2022/11/01 13:22:36;;;;;;;20.85;10.38;;;;;;;7.39;100.00;100315.56;4949594;28;20059;-62
2022/11/01 13:25:29;;;;;;;22.00;10.00;;;;;;;7.67;100.00;100363.16;4915541;28;20091;-61
2022/11/01 13:28:21;;;;;;;24.40;9.75;;;;;;;7.66;100.00;100353.63;4918069;28;20060;-61
2022/11/01 13:31:07;;;;;;;21.77;10.00;;;;;;;7.70;100.00;100339.72;4938749;28;20067;-58
2022/11/01 13:34:20;;;;;;;20.10;9.40;;;;;;;7.67;100.00;100321.53;4858128;28;20041;-60
2022/11/01 13:37:07;;;;;;;23.25;10.90;;;;;;;7.67;100.00;100312.88;4914751;28;20091;-59
2022/11/01 13:39:59;;;;;;;25.23;11.13;;;;;;;7.66;100.00;100312.00;4936802;28;20106;-60
2022/11/01 13:42:43;;;;;;;26.55;10.30;;;;;;;7.66;100.00;100313.72;4909146;28;20037;-60
2022/11/01 13:45:43;;;;;;;20.60;10.23;;;;;;;7.68;100.00;100304.19;4944906;28;20055;-59
2022/11/01 13:54:44;;;;;;;24.52;11.18;;;;;;;7.62;100.00;100314.63;4944016;28;20037;-59
2022/11/01 13:57:35;;;;;;;22.60;11.65;;;;;;;7.55;100.00;100313.75;4917123;28;20045;-60
2022/11/01 14:00:37;;;;;;;22.77;11.40;;;;;;;7.61;100.00;100331.94;4923478;28;20049;-60
2022/11/01 14:03:35;;;;;;;28.92;11.63;;;;;;;7.59;100.00;100341.50;4888164;28;20048;-59
2022/11/01 14:07:04;;;;;;;23.65;10.88;;;;;;;7.56;100.00;100325.88;4912673;28;20306;-59
2022/11/01 14:09:58;;;;;;;20.92;11.23;;;;;;;7.30;100.00;100273.97;4910992;28;20112;-59
2022/11/01 14:12:44;;;;;;;26.77;11.15;;;;;;;7.44;100.00;100294.72;4921652;28;20075;-59
2022/11/01 14:15:43;;;;;;;21.48;11.35;;;;;;;7.26;100.00;100264.44;4897692;28;20040;-59
2022/11/01 14:21:31;;;;;;;19.08;10.82;;;;;;;7.42;100.00;100280.88;4921331;28;20070;-59
2022/11/01 14:27:44;;;;;;;17.75;9.38;;;;;;;7.32;100.00;100248.84;4899254;28;20344;-59
2022/11/01 14:30:30;;;;;;;20.85;9.45;;;;;;;7.53;100.00;100279.09;4916706;28;20051;-59
2022/11/01 14:33:29;;;;;;;18.73;8.63;;;;;;;7.32;100.00;100234.13;4896990;28;21173;-58
2022/11/01 14:36:37;;;;;;;14.88;7.00;;;;;;;7.59;100.00;100270.41;4897668;28;20052;-59
2022/11/01 14:39:36;;;;;;;11.68;6.45;;;;;;;7.56;100.00;100247.88;4909041;28;20254;-59
2022/11/01 14:42:21;;;;;;;11.40;6.03;;;;;;;7.69;100.00;100265.19;4923934;28;20044;-59
2022/11/01 14:45:25;;;;;;;12.68;5.03;;;;;;;7.72;100.00;100259.94;4910334;28;20052;-59
2022/11/01 14:51:26;;;;;;;8.52;3.90;;;;;;;7.77;100.00;100242.59;4887684;28;20032;-59
2022/11/01 14:54:30;;;;;;;8.32;3.85;;;;;;;7.87;100.00;100258.16;4892353;28;20036;-60
2022/11/01 14:57:38;;;;;;;6.18;3.50;;;;;;;7.91;100.00;100244.22;4929184;28;20057;-59
2022/11/01 15:03:27;;;;;;;5.78;3.50;;;;;;;7.89;100.00;100228.66;4910544;28;20111;-59
2022/11/01 15:06:16;;;;;;;7.47;3.90;;;;;;;7.90;100.00;100211.31;4888902;28;20045;-59
2022/11/01 15:08:55;;;;;;;12.77;3.92;;;;;;;7.90;100.00;100206.09;4897878;28;20049;-59
2022/11/01 15:12:20;;;;;;;8.65;4.47;;;;;;;7.90;100.00;100195.69;4934157;28;20055;-59
2022/11/01 15:15:04;;;;;;;11.20;3.80;;;;;;;7.87;100.00;100180.09;4918261;28;20044;-59
2022/11/01 15:18:04;;;;;;;6.20;3.35;;;;;;;7.85;100.00;100171.44;4909925;28;20124;-58
2022/11/01 15:21:01;;;;;;;9.57;3.35;;;;;;;7.80;100.00;100155.00;4895055;28;20338;-59
2022/11/01 15:23:46;;;;;;;11.05;3.58;;;;;;;7.87;100.00;100147.16;4895305;28;20125;-60
2022/11/01 15:26:29;;;;;;;6.93;2.90;;;;;;;7.44;100.00;100065.94;4887110;28;20265;-59
2022/11/01 15:29:22;;;;;;;6.75;2.80;;;;;;;7.91;100.00;100134.97;4914145;28;20041;-60
2022/11/01 15:32:09;;;;;;;5.35;2.45;;;;;;;7.86;100.00;100115.94;4919980;28;20086;-59
2022/11/01 15:35:27;;;;;;;3.80;1.98;;;;;;;7.93;100.00;100125.41;4893796;28;20103;-59
2022/11/01 15:38:13;;;;;;;6.63;1.80;;;;;;;7.87;100.00;100105.53;4916485;28;20047;-59
2022/11/01 15:40:58;;;;;;;3.75;1.73;;;;;;;7.88;100.00;100099.44;4916782;28;20052;-59
2022/11/01 15:43:54;;;;;;;2.05;1.40;;;;;;;7.94;100.00;100095.94;4920209;28;20037;-59
2022/11/01 15:46:40;;;;;;;4.00;1.67;;;;;;;7.93;100.00;100089.00;4827480;28;20061;-59
2022/11/01 15:49:30;;;;;;;2.25;1.42;;;;;;;7.94;100.00;100082.94;4908484;28;20134;-59
2022/11/01 15:52:25;;;;;;;2.60;1.20;;;;;;;7.94;100.00;100067.31;4921625;28;20086;-59
2022/11/01 15:55:05;;;;;;;1.42;0.85;;;;;;;7.92;100.00;100058.66;4902215;28;20056;-59
2022/11/01 15:58:04;;;;;;;0.98;0.80;;;;;;;7.96;99.48;100060.34;4899606;28;20040;-59
2022/11/01 16:00:43;;;;;;;0.80;0.80;;;;;;;7.98;99.27;100048.19;4887174;28;20532;-59
2022/11/01 16:03:39;;;;;;;1.48;0.85;;;;;;;7.98;98.58;100037.78;4869158;28;20059;-59
2022/11/01 16:06:22;;;;;;;1.50;0.70;;;;;;;7.44;98.47;99946.38;4904032;28;20060;-59
2022/11/01 16:12:16;;;;;;;2.08;0.80;;;;;;;7.97;98.47;100023.06;4875005;28;20049;-59
2022/11/01 16:15:11;;;;;;;1.13;0.80;;;;;;;7.96;98.80;100026.53;4934083;28;20041;-59
2022/11/01 16:18:22;;;;;;;1.25;0.77;;;;;;;7.94;99.35;100015.28;4904804;28;20546;-59
2022/11/01 16:21:34;;;;;;;1.65;0.70;;;;;;;8.01;99.67;100029.94;4920170;28;20232;-59